MSC Vanessa — HOWD — position and weather

sailwx.info

Track history (hours):
 
Tides and Currents Weather Stations Pressure Air Temp Water Temp Dewpoint Dewpoint Depression Visibility Wind Speed Wind Dir Waves Ship Positions

MSC Vanessa

Last reported at 2015-May-18 05:33 UTC. Time now 2015-May-26 09:50 UTC.
Position N 35°58' W 005°34'.
Warning: this ship's position is 8 days out of date.

Length 300 m; draft 9 m.

Type: Ship (hazmat cat B). MMSI: 356946000.

Date/timePositionNaut miles runAvg speedWind from/ knotsBaromVisibWave heightAir tempDewpointWater temp
2015-May-18 05:33N 35°58' W 005°34'7 0.3
2015-May-17 08:33N 35°60' W 005°26'1010.4
2015-May-17 07:33N 36°02' W 005°14'1 1.2
2015-May-17 06:33N 36°02' W 005°12'2 1.6
2015-May-17 05:34N 36°03' W 005°11'1 1.0
2015-May-17 04:33N 36°04' W 005°10'0 0.5
2015-May-17 03:33N 36°04' W 005°09'2 1.8
2015-May-17 02:10N 36°04' W 005°12'1 1.9
2015-May-17 01:34N 36°03' W 005°11'6 6.0
2015-May-17 00:34N 36°04' W 005°04'193 7.6
2015-May-15 23:07N 37°03' W 001°16'12 7.5
2015-May-15 21:33N 37°11' W 001°05'7 7.2
2015-May-15 20:33N 37°16' W 000°58'7 7.1
2015-May-15 19:33N 37°21' W 000°52'7 6.7
2015-May-15 18:33N 37°25' W 000°45'7 6.5
2015-May-15 17:31N 37°30' W 000°39'6 6.2
2015-May-15 16:33N 37°34' W 000°34'6 5.9
2015-May-15 15:33N 37°39' W 000°30'6 5.8
2015-May-15 14:33N 37°44' W 000°26'6 6.0
2015-May-15 13:33N 37°49' W 000°21'6 6.4
2015-May-15 12:33N 37°54' W 000°17'6 6.5
2015-May-15 11:33N 37°59' W 000°13'26 7.5
2015-May-15 08:06N 38°21' E 000°05'7 8.4
2015-May-15 07:15N 38°27' E 000°10'24 6.4
2015-May-15 03:28N 38°50' E 000°20'31 6.1
2015-May-14 22:25N 39°15' W 000°02'6 6.6
2015-May-14 21:33N 39°20' W 000°07'7 6.7
2015-May-14 20:33N 39°25' W 000°13'5 4.4
2015-May-14 19:22N 39°26' W 000°19'0 0.0
2015-May-14 18:31N 39°26' W 000°19'0 0.0
2015-May-14 17:31N 39°26' W 000°19'0 0.0
2015-May-14 16:31N 39°26' W 000°19'0 0.0
2015-May-14 15:31N 39°26' W 000°19'0 0.0
2015-May-14 14:31N 39°26' W 000°19'0 0.0
2015-May-14 13:31N 39°26' W 000°19'0 0.0
2015-May-14 12:31N 39°26' W 000°19'0 0.0
2015-May-14 11:31N 39°26' W 000°19'0 0.0
2015-May-14 10:31N 39°26' W 000°19'0 0.0
2015-May-14 09:31N 39°26' W 000°19'0 0.0
2015-May-14 08:31N 39°26' W 000°19'0 0.0
2015-May-13 16:04N 39°26' W 000°20'0 0.0
2015-May-13 15:22N 39°26' W 000°20'0 0.0
2015-May-13 14:22N 39°26' W 000°20'0 0.0
2015-May-13 13:28N 39°26' W 000°20'0 0.0
2015-May-13 12:31N 39°26' W 000°20'0 0.0
2015-May-13 11:31N 39°26' W 000°20'0 0.0
2015-May-13 10:28N 39°26' W 000°20'0 0.0
2015-May-13 09:31N 39°26' W 000°20'0 0.0
2015-May-13 08:31N 39°26' W 000°20'0 0.0
2015-May-13 07:32N 39°26' W 000°20'4 3.7
2015-May-13 06:33N 39°25' W 000°15'6 6.5
2015-May-13 05:34N 39°22' W 000°08'1816.5
2015-May-13 04:27N 39°08' E 000°07'1616.9
2015-May-13 03:32N 38°55' E 000°19'1515.1
2015-May-13 02:33N 38°42' E 000°28'1616.6
2015-May-13 01:34N 38°29' E 000°16'1716.7
2015-May-13 00:33N 38°15' E 000°04'1716.7
2015-May-12 23:33N 38°01' W 000°07'1717.0
2015-May-12 22:33N 37°47' W 000°19'1716.7
2015-May-12 21:34N 37°33' W 000°31'1716.8
2015-May-12 20:34N 37°21' W 000°47'1716.7
2015-May-12 19:34N 37°10' W 001°02'1717.0
2015-May-12 18:34N 36°58' W 001°17'1717.0
2015-May-12 17:34N 36°47' W 001°33'1716.9
2015-May-12 16:34N 36°35' W 001°48'1716.9
2015-May-12 15:33N 36°25' W 002°05'1616.5
2015-May-12 14:33N 36°21' W 002°25'1717.1
2015-May-12 13:34N 36°18' W 002°46'1717.1
2015-May-12 12:33N 36°16' W 003°07'10517.5
2015-May-12 06:34N 36°00' W 005°15'1212.2
2015-May-12 05:34N 36°09' W 005°26'0 0.2
2015-May-12 04:32N 36°09' W 005°26'0 0.0
2015-May-12 03:32N 36°09' W 005°26'0 0.0
2015-May-12 02:32N 36°09' W 005°26'0 0.0
2015-May-12 01:32N 36°09' W 005°26'0 0.0
2015-May-12 00:29N 36°09' W 005°26'0 0.0
2015-May-11 23:29N 36°09' W 005°26'0 0.0
2015-May-11 21:29N 36°09' W 005°26'0 0.0
2015-May-11 20:23N 36°09' W 005°26'0 0.0
2015-May-11 19:32N 36°09' W 005°26'0 0.0
2015-May-11 18:29N 36°09' W 005°26'0 0.0
2015-May-11 17:26N 36°09' W 005°26'0 0.0
2015-May-11 16:32N 36°09' W 005°26'0 0.0
2015-May-11 15:32N 36°09' W 005°26'0 0.0
2015-May-11 14:32N 36°09' W 005°26'0 0.0
2015-May-11 13:32N 36°09' W 005°26'0 0.0
2015-May-11 12:32N 36°09' W 005°26'2 2.0
2015-May-11 11:33N 36°08' W 005°24'4 3.8
2015-May-11 10:34N 36°04' W 005°22'1 0.7
2015-May-11 09:34N 36°04' W 005°23'6 6.3
2015-May-11 08:34N 35°58' W 005°26'4013.4
2015-May-11 05:33N 35°45' W 006°13'1716.8
2015-May-11 04:33N 35°34' W 006°28'1817.9
2015-May-11 03:33N 35°22' W 006°44'10617.7
2015-May-10 21:33N 34°12' W 008°22'3417.2
2015-May-10 19:33N 33°49' W 008°53'1817.2
2015-May-10 18:30N 33°37' W 009°09'20417.0
2015-May-10 06:31N 31°12' W 012°00'1616.7
2015-May-10 05:32N 31°01' W 012°13'17416.9
2015-May-09 19:13N 28°53' W 014°30'1517.1
2015-May-09 18:21N 28°42' W 014°42'1417.0
2015-May-09 17:33N 28°32' W 014°52'1716.9
2015-May-09 16:33N 28°20' W 015°05'  
Track history (hours):
 
Tides and Currents Weather Stations Pressure Air Temp Water Temp Dewpoint Dewpoint Depression Visibility Wind Speed Wind Dir Waves Ship Positions

MSC Vanessa

Last reported at 2015-May-18 05:33 UTC. Time now 2015-May-26 09:50 UTC.
Position N 35°58' W 005°34'.
Warning: this ship's position is 8 days out of date.

Length 300 m; draft 9 m.

Type: Ship (hazmat cat B). MMSI: 356946000.

Date/timePositionNaut miles runAvg speedWind from/ knotsBaromVisibWave heightAir tempDewpointWater temp
2015-May-18 05:33N 35°58' W 005°34'7 0.3
2015-May-17 08:33N 35°60' W 005°26'1010.4
2015-May-17 07:33N 36°02' W 005°14'1 1.2
2015-May-17 06:33N 36°02' W 005°12'2 1.6
2015-May-17 05:34N 36°03' W 005°11'1 1.0
2015-May-17 04:33N 36°04' W 005°10'0 0.5
2015-May-17 03:33N 36°04' W 005°09'2 1.8
2015-May-17 02:10N 36°04' W 005°12'1 1.9
2015-May-17 01:34N 36°03' W 005°11'6 6.0
2015-May-17 00:34N 36°04' W 005°04'193 7.6
2015-May-15 23:07N 37°03' W 001°16'12 7.5
2015-May-15 21:33N 37°11' W 001°05'7 7.2
2015-May-15 20:33N 37°16' W 000°58'7 7.1
2015-May-15 19:33N 37°21' W 000°52'7 6.7
2015-May-15 18:33N 37°25' W 000°45'7 6.5
2015-May-15 17:31N 37°30' W 000°39'6 6.2
2015-May-15 16:33N 37°34' W 000°34'6 5.9
2015-May-15 15:33N 37°39' W 000°30'6 5.8
2015-May-15 14:33N 37°44' W 000°26'6 6.0
2015-May-15 13:33N 37°49' W 000°21'6 6.4
2015-May-15 12:33N 37°54' W 000°17'6 6.5
2015-May-15 11:33N 37°59' W 000°13'26 7.5
2015-May-15 08:06N 38°21' E 000°05'7 8.4
2015-May-15 07:15N 38°27' E 000°10'24 6.4
2015-May-15 03:28N 38°50' E 000°20'31 6.1
2015-May-14 22:25N 39°15' W 000°02'6 6.6
2015-May-14 21:33N 39°20' W 000°07'7 6.7
2015-May-14 20:33N 39°25' W 000°13'5 4.4
2015-May-14 19:22N 39°26' W 000°19'0 0.0
2015-May-14 18:31N 39°26' W 000°19'0 0.0
2015-May-14 17:31N 39°26' W 000°19'0 0.0
2015-May-14 16:31N 39°26' W 000°19'0 0.0
2015-May-14 15:31N 39°26' W 000°19'0 0.0
2015-May-14 14:31N 39°26' W 000°19'0 0.0
2015-May-14 13:31N 39°26' W 000°19'0 0.0
2015-May-14 12:31N 39°26' W 000°19'0 0.0
2015-May-14 11:31N 39°26' W 000°19'0 0.0
2015-May-14 10:31N 39°26' W 000°19'0 0.0
2015-May-14 09:31N 39°26' W 000°19'0 0.0
2015-May-14 08:31N 39°26' W 000°19'0 0.0
2015-May-13 16:04N 39°26' W 000°20'0 0.0
2015-May-13 15:22N 39°26' W 000°20'0 0.0
2015-May-13 14:22N 39°26' W 000°20'0 0.0
2015-May-13 13:28N 39°26' W 000°20'0 0.0
2015-May-13 12:31N 39°26' W 000°20'0 0.0
2015-May-13 11:31N 39°26' W 000°20'0 0.0
2015-May-13 10:28N 39°26' W 000°20'0 0.0
2015-May-13 09:31N 39°26' W 000°20'0 0.0
2015-May-13 08:31N 39°26' W 000°20'0 0.0
2015-May-13 07:32N 39°26' W 000°20'4 3.7
2015-May-13 06:33N 39°25' W 000°15'6 6.5
2015-May-13 05:34N 39°22' W 000°08'1816.5
2015-May-13 04:27N 39°08' E 000°07'1616.9
2015-May-13 03:32N 38°55' E 000°19'1515.1
2015-May-13 02:33N 38°42' E 000°28'1616.6
2015-May-13 01:34N 38°29' E 000°16'1716.7
2015-May-13 00:33N 38°15' E 000°04'1716.7
2015-May-12 23:33N 38°01' W 000°07'1717.0
2015-May-12 22:33N 37°47' W 000°19'1716.7
2015-May-12 21:34N 37°33' W 000°31'1716.8
2015-May-12 20:34N 37°21' W 000°47'1716.7
2015-May-12 19:34N 37°10' W 001°02'1717.0
2015-May-12 18:34N 36°58' W 001°17'1717.0
2015-May-12 17:34N 36°47' W 001°33'1716.9
2015-May-12 16:34N 36°35' W 001°48'1716.9
2015-May-12 15:33N 36°25' W 002°05'1616.5
2015-May-12 14:33N 36°21' W 002°25'1717.1
2015-May-12 13:34N 36°18' W 002°46'1717.1
2015-May-12 12:33N 36°16' W 003°07'10517.5
2015-May-12 06:34N 36°00' W 005°15'1212.2
2015-May-12 05:34N 36°09' W 005°26'0 0.2
2015-May-12 04:32N 36°09' W 005°26'0 0.0
2015-May-12 03:32N 36°09' W 005°26'0 0.0
2015-May-12 02:32N 36°09' W 005°26'0 0.0
2015-May-12 01:32N 36°09' W 005°26'0 0.0
2015-May-12 00:29N 36°09' W 005°26'0 0.0
2015-May-11 23:29N 36°09' W 005°26'0 0.0
2015-May-11 21:29N 36°09' W 005°26'0 0.0
2015-May-11 20:23N 36°09' W 005°26'0 0.0
2015-May-11 19:32N 36°09' W 005°26'0 0.0
2015-May-11 18:29N 36°09' W 005°26'0 0.0
2015-May-11 17:26N 36°09' W 005°26'0 0.0
2015-May-11 16:32N 36°09' W 005°26'0 0.0
2015-May-11 15:32N 36°09' W 005°26'0 0.0
2015-May-11 14:32N 36°09' W 005°26'0 0.0
2015-May-11 13:32N 36°09' W 005°26'0 0.0
2015-May-11 12:32N 36°09' W 005°26'2 2.0
2015-May-11 11:33N 36°08' W 005°24'4 3.8
2015-May-11 10:34N 36°04' W 005°22'1 0.7
2015-May-11 09:34N 36°04' W 005°23'6 6.3
2015-May-11 08:34N 35°58' W 005°26'4013.4
2015-May-11 05:33N 35°45' W 006°13'1716.8
2015-May-11 04:33N 35°34' W 006°28'1817.9
2015-May-11 03:33N 35°22' W 006°44'10617.7
2015-May-10 21:33N 34°12' W 008°22'3417.2
2015-May-10 19:33N 33°49' W 008°53'1817.2
2015-May-10 18:30N 33°37' W 009°09'20417.0
2015-May-10 06:31N 31°12' W 012°00'1616.7
2015-May-10 05:32N 31°01' W 012°13'17416.9
2015-May-09 19:13N 28°53' W 014°30'1517.1
2015-May-09 18:21N 28°42' W 014°42'1417.0
2015-May-09 17:33N 28°32' W 014°52'1716.9
2015-May-09 16:33N 28°20' W 015°05'  

Dump ship's entire track history